Time;durP1;ratioP1;P1;durP2;ratioP2;P2;SDS_P1;SDS_P2;PMS_P1;PMS_P2;Temp;Humidity;BMP_temperature;BMP_pressure;BME280_temperature;BME280_humidity;BME280_pressure;Samples;Min_cycle;Max_cycle;Signal;HPM_P1;HPM_P2
2021/10/14 00:01:34;;;;;;;945.05;810.58;;;;;;;;;;5102794;28;20099;-73
2021/10/14 00:04:00;;;;;;;945.92;813.45;;;;;;;;;;5100785;28;20047;-74
2021/10/14 00:06:26;;;;;;;935.10;783.80;;;;;;;;;;5084755;28;20031;-73
2021/10/14 00:08:52;;;;;;;931.15;774.85;;;;;;;;;;5111463;28;20080;-74
2021/10/14 00:11:18;;;;;;;952.75;826.95;;;;;;;;;;5100217;28;20590;-74
2021/10/14 00:13:44;;;;;;;949.20;820.55;;;;;;;;;;5095059;28;20127;-74
2021/10/14 00:16:10;;;;;;;942.65;809.97;;;;;;;;;;5086375;28;20110;-74
2021/10/14 00:18:36;;;;;;;943.55;810.97;;;;;;;;;;5110166;28;20038;-74
2021/10/14 00:21:02;;;;;;;947.78;816.60;;;;;;;;;;5106766;28;20043;-74
2021/10/14 00:23:28;;;;;;;932.22;778.33;;;;;;;;;;5106612;28;20023;-74
2021/10/14 00:25:54;;;;;;;936.63;789.67;;;;;;;;;;5078583;28;20035;-74
2021/10/14 00:28:20;;;;;;;937.25;790.45;;;;;;;;;;5108185;28;20024;-73
2021/10/14 00:30:46;;;;;;;930.55;769.70;;;;;;;;;;5095164;28;20551;-75
2021/10/14 00:33:12;;;;;;;931.90;775.13;;;;;;;;;;5099729;28;20039;-74
2021/10/14 00:35:38;;;;;;;916.17;730.95;;;;;;;;;;5081420;28;20026;-73
2021/10/14 00:38:04;;;;;;;927.70;766.33;;;;;;;;;;5093166;28;20096;-73
2021/10/14 00:40:33;;;;;;;941.35;799.50;;;;;;;;;;5102588;28;20592;-74
2021/10/14 00:42:59;;;;;;;944.00;808.58;;;;;;;;;;5085859;28;20032;-74
2021/10/14 00:45:24;;;;;;;926.75;769.50;;;;;;;;;;5101343;28;20032;-73
2021/10/14 00:47:50;;;;;;;931.28;779.17;;;;;;;;;;5099313;28;20055;-74
2021/10/14 00:50:16;;;;;;;934.65;776.53;;;;;;;;;;5108513;28;20110;-74
2021/10/14 00:52:42;;;;;;;924.78;759.17;;;;;;;;;;5082532;28;20387;-73
2021/10/14 00:55:10;;;;;;;915.72;737.13;;;;;;;;;;5084705;28;20028;-74
2021/10/14 00:57:36;;;;;;;931.85;774.95;;;;;;;;;;5102771;28;20034;-74
2021/10/14 01:00:03;;;;;;;945.95;818.08;;;;;;;;;;5098032;28;20020;-74
2021/10/14 01:02:29;;;;;;;948.63;821.63;;;;;;;;;;5085998;28;20023;-74
2021/10/14 01:04:55;;;;;;;945.45;814.10;;;;;;;;;;5105734;28;20028;-74
2021/10/14 01:07:22;;;;;;;923.05;753.00;;;;;;;;;;5102197;28;20487;-74
2021/10/14 01:09:48;;;;;;;923.00;753.65;;;;;;;;;;5101753;28;20080;-74
2021/10/14 01:12:14;;;;;;;943.45;807.28;;;;;;;;;;5085660;28;20464;-74
2021/10/14 01:14:40;;;;;;;933.67;783.35;;;;;;;;;;5101926;28;20739;-74
2021/10/14 01:17:06;;;;;;;928.03;769.47;;;;;;;;;;5091207;28;20103;-74
2021/10/14 01:19:32;;;;;;;922.70;752.55;;;;;;;;;;5100273;28;20486;-73
2021/10/14 01:21:58;;;;;;;925.10;757.50;;;;;;;;;;5100340;28;20590;-74
2021/10/14 01:24:24;;;;;;;923.45;751.55;;;;;;;;;;5100391;28;20115;-74
2021/10/14 01:26:51;;;;;;;919.17;734.75;;;;;;;;;;5109565;28;20032;-74
2021/10/14 01:29:17;;;;;;;906.47;706.47;;;;;;;;;;5109763;28;20042;-74
2021/10/14 01:31:43;;;;;;;911.45;723.38;;;;;;;;;;5101813;28;20023;-74
2021/10/14 01:34:09;;;;;;;931.60;747.83;;;;;;;;;;5101130;28;20488;-74
2021/10/14 01:36:35;;;;;;;901.10;680.20;;;;;;;;;;5099966;28;20111;-74
2021/10/14 01:39:01;;;;;;;893.85;669.05;;;;;;;;;;5103133;28;20059;-73
2021/10/14 01:41:27;;;;;;;908.50;708.58;;;;;;;;;;5080197;28;20036;-73
2021/10/14 01:43:53;;;;;;;906.75;707.17;;;;;;;;;;5098163;28;20109;-74
2021/10/14 01:46:19;;;;;;;915.42;735.65;;;;;;;;;;5097622;28;20050;-74
2021/10/14 01:48:45;;;;;;;923.40;757.38;;;;;;;;;;5102871;28;20126;-73
2021/10/14 01:51:12;;;;;;;922.35;749.25;;;;;;;;;;5083118;28;20042;-73
2021/10/14 01:53:38;;;;;;;930.97;761.53;;;;;;;;;;5097237;28;20031;-74
2021/10/14 01:56:05;;;;;;;929.75;778.50;;;;;;;;;;5101261;28;20077;-74
2021/10/14 01:58:31;;;;;;;919.22;750.05;;;;;;;;;;5099994;28;20020;-74
2021/10/14 02:00:57;;;;;;;926.78;771.42;;;;;;;;;;5103274;28;20031;-74
2021/10/14 02:03:23;;;;;;;933.05;787.20;;;;;;;;;;5100264;28;20028;-74
2021/10/14 02:05:49;;;;;;;930.92;777.35;;;;;;;;;;5079913;28;20020;-74
2021/10/14 02:08:15;;;;;;;920.28;756.55;;;;;;;;;;5093246;28;20558;-74
2021/10/14 02:10:42;;;;;;;925.60;767.70;;;;;;;;;;5083912;28;20020;-73
2021/10/14 02:13:08;;;;;;;912.28;729.47;;;;;;;;;;5102408;28;20046;-74
2021/10/14 02:15:34;;;;;;;914.78;735.97;;;;;;;;;;5109005;28;20028;-74
2021/10/14 02:18:00;;;;;;;941.97;809.40;;;;;;;;;;5097725;28;20024;-73
2021/10/14 02:20:26;;;;;;;924.63;764.03;;;;;;;;;;5101509;28;20035;-74
2021/10/14 02:22:52;;;;;;;923.08;762.50;;;;;;;;;;5083150;28;20459;-73
2021/10/14 02:25:18;;;;;;;935.97;800.90;;;;;;;;;;5099836;28;20062;-74
2021/10/14 02:27:44;;;;;;;933.03;792.60;;;;;;;;;;5089973;28;20028;-73
2021/10/14 02:30:12;;;;;;;930.72;783.95;;;;;;;;;;5100473;28;20650;-74
2021/10/14 02:32:38;;;;;;;935.10;798.58;;;;;;;;;;5099536;28;20107;-74
2021/10/14 02:35:04;;;;;;;938.38;808.75;;;;;;;;;;5093785;28;20059;-74
2021/10/14 02:37:30;;;;;;;929.05;781.83;;;;;;;;;;5103688;28;20034;-73
2021/10/14 02:39:56;;;;;;;928.15;774.65;;;;;;;;;;5100830;28;20028;-73
2021/10/14 02:42:22;;;;;;;930.20;779.38;;;;;;;;;;5098535;28;20024;-74
2021/10/14 02:44:49;;;;;;;927.33;779.50;;;;;;;;;;5071933;28;20032;-74
2021/10/14 02:47:15;;;;;;;932.78;792.75;;;;;;;;;;5088277;28;20031;-74
2021/10/14 02:49:41;;;;;;;933.33;792.60;;;;;;;;;;5101840;28;20042;-74
2021/10/14 02:52:07;;;;;;;934.05;796.95;;;;;;;;;;5103398;28;21006;-74
2021/10/14 02:54:33;;;;;;;943.05;819.67;;;;;;;;;;5098650;28;20024;-74
2021/10/14 02:56:59;;;;;;;928.30;783.50;;;;;;;;;;5112935;28;20039;-74
2021/10/14 02:59:28;;;;;;;913.28;741.08;;;;;;;;;;5090537;28;20023;-74
2021/10/14 03:01:54;;;;;;;921.58;760.17;;;;;;;;;;5099570;28;20074;-74
2021/10/14 03:04:21;;;;;;;934.35;799.28;;;;;;;;;;5079175;28;20032;-74
2021/10/14 03:06:47;;;;;;;929.95;783.72;;;;;;;;;;5112167;28;20059;-74
2021/10/14 03:09:13;;;;;;;931.47;788.53;;;;;;;;;;5094681;28;20624;-74
2021/10/14 03:11:39;;;;;;;919.42;756.67;;;;;;;;;;5074739;28;20085;-74
2021/10/14 03:14:05;;;;;;;922.70;758.25;;;;;;;;;;5083806;28;20052;-73
2021/10/14 03:16:31;;;;;;;939.88;803.13;;;;;;;;;;5101865;28;20023;-74
2021/10/14 03:18:57;;;;;;;908.72;723.60;;;;;;;;;;5100947;28;20102;-74
2021/10/14 03:21:24;;;;;;;923.58;769.70;;;;;;;;;;5100981;28;20055;-74
2021/10/14 03:23:50;;;;;;;939.75;809.97;;;;;;;;;;5085197;28;20118;-74
2021/10/14 03:26:17;;;;;;;947.90;829.08;;;;;;;;;;5101514;28;20028;-74
2021/10/14 03:28:43;;;;;;;932.10;795.50;;;;;;;;;;5109094;28;20028;-73
2021/10/14 03:31:09;;;;;;;923.80;758.35;;;;;;;;;;5110802;28;20042;-74
2021/10/14 03:33:35;;;;;;;928.88;784.85;;;;;;;;;;5081137;28;20118;-73
2021/10/14 03:36:01;;;;;;;936.42;803.65;;;;;;;;;;5100408;28;20123;-74
2021/10/14 03:38:36;;;;;;;928.30;785.80;;;;;;;;;;5102988;28;20410;-74
2021/10/14 03:41:02;;;;;;;929.42;769.13;;;;;;;;;;5107615;28;20556;-73
2021/10/14 03:43:28;;;;;;;924.90;773.70;;;;;;;;;;5085771;28;20019;-73
2021/10/14 03:45:54;;;;;;;945.67;826.80;;;;;;;;;;5097039;28;20028;-74
2021/10/14 03:48:20;;;;;;;937.08;804.10;;;;;;;;;;5109472;28;20035;-74
2021/10/14 03:50:46;;;;;;;946.60;815.88;;;;;;;;;;5097727;28;20527;-73
2021/10/14 03:53:12;;;;;;;937.78;801.83;;;;;;;;;;5108335;28;20634;-74
2021/10/14 03:55:38;;;;;;;936.17;811.03;;;;;;;;;;5093357;28;20024;-74
2021/10/14 03:58:04;;;;;;;938.75;823.60;;;;;;;;;;5105739;28;20039;-73
2021/10/14 04:00:30;;;;;;;946.72;836.45;;;;;;;;;;5085823;28;20024;-74
2021/10/14 04:02:56;;;;;;;950.10;839.88;;;;;;;;;;5104905;28;20144;-74
2021/10/14 04:05:22;;;;;;;956.97;850.42;;;;;;;;;;5100433;28;20024;-73
2021/10/14 04:07:48;;;;;;;960.28;854.38;;;;;;;;;;5104953;28;20055;-74
2021/10/14 04:10:14;;;;;;;958.92;852.40;;;;;;;;;;5110475;28;20059;-74
2021/10/14 04:12:41;;;;;;;960.50;854.20;;;;;;;;;;5086214;28;20080;-74
2021/10/14 04:15:07;;;;;;;989.30;882.13;;;;;;;;;;5111141;28;20054;-74
2021/10/14 04:17:34;;;;;;;945.13;836.30;;;;;;;;;;5094856;28;20020;-74
2021/10/14 04:20:00;;;;;;;938.60;814.13;;;;;;;;;;5111804;28;20047;-74
2021/10/14 04:22:27;;;;;;;941.65;824.78;;;;;;;;;;5093338;28;20024;-74
2021/10/14 04:24:53;;;;;;;985.40;878.30;;;;;;;;;;5103490;28;20028;-74
2021/10/14 04:27:19;;;;;;;932.85;814.80;;;;;;;;;;5083485;28;20352;-74
2021/10/14 04:29:45;;;;;;;985.72;878.55;;;;;;;;;;5103284;28;20032;-74
2021/10/14 04:32:11;;;;;;;960.60;854.53;;;;;;;;;;5110259;28;20035;-74
2021/10/14 04:34:37;;;;;;;986.78;879.47;;;;;;;;;;5102462;28;20035;-74
2021/10/14 04:37:07;;;;;;;991.05;883.58;;;;;;;;;;5090538;28;20031;-74
2021/10/14 04:39:34;;;;;;;937.60;822.13;;;;;;;;;;5079116;28;20121;-74
2021/10/14 04:42:00;;;;;;;980.42;873.35;;;;;;;;;;5108701;28;20378;-74
2021/10/14 04:44:26;;;;;;;974.80;868.17;;;;;;;;;;5082530;28;20020;-74
2021/10/14 04:46:52;;;;;;;993.25;885.85;;;;;;;;;;5082857;28;20719;-74
2021/10/14 04:49:18;;;;;;;985.25;878.35;;;;;;;;;;5107828;28;20027;-74
2021/10/14 04:51:44;;;;;;;973.10;866.75;;;;;;;;;;5104517;28;20709;-74
2021/10/14 04:54:10;;;;;;;981.08;874.42;;;;;;;;;;5083830;28;20468;-74
2021/10/14 04:56:36;;;;;;;966.85;860.53;;;;;;;;;;5099439;28;20026;-74
2021/10/14 04:59:02;;;;;;;990.55;883.08;;;;;;;;;;5108471;28;20434;-73
2021/10/14 05:01:28;;;;;;;974.33;867.97;;;;;;;;;;5091156;28;20050;-74
2021/10/14 05:03:54;;;;;;;994.17;886.97;;;;;;;;;;5098946;28;20039;-74
2021/10/14 05:06:20;;;;;;;950.53;845.33;;;;;;;;;;5105260;28;20036;-73
2021/10/14 05:08:46;;;;;;;966.05;860.40;;;;;;;;;;5087636;28;20031;-74
2021/10/14 05:11:12;;;;;;;960.00;854.53;;;;;;;;;;5092419;28;20027;-73
2021/10/14 05:13:39;;;;;;;957.47;852.03;;;;;;;;;;5103226;28;20043;-74
2021/10/14 05:16:05;;;;;;;945.80;838.03;;;;;;;;;;5107662;28;20102;-74
2021/10/14 05:18:31;;;;;;;928.45;807.10;;;;;;;;;;5106123;28;20019;-74
2021/10/14 05:20:57;;;;;;;965.53;859.75;;;;;;;;;;5083245;28;20119;-74
2021/10/14 05:23:23;;;;;;;927.33;803.22;;;;;;;;;;5098162;28;20028;-73
2021/10/14 05:25:49;;;;;;;926.10;791.85;;;;;;;;;;5090889;28;20039;-74
2021/10/14 05:28:16;;;;;;;926.60;800.25;;;;;;;;;;5082316;28;20020;-73
2021/10/14 05:30:42;;;;;;;944.60;837.63;;;;;;;;;;5083148;28;20119;-74
2021/10/14 05:33:08;;;;;;;969.53;863.47;;;;;;;;;;5093782;28;20446;-73
2021/10/14 05:35:34;;;;;;;946.05;838.35;;;;;;;;;;5079726;28;20020;-73
2021/10/14 05:38:01;;;;;;;943.28;835.33;;;;;;;;;;5108001;28;20043;-74
2021/10/14 05:40:27;;;;;;;945.30;835.78;;;;;;;;;;5074113;28;20028;-74
2021/10/14 05:42:53;;;;;;;976.92;870.15;;;;;;;;;;5109133;28;20070;-74
2021/10/14 05:45:19;;;;;;;956.65;850.97;;;;;;;;;;5104914;28;20079;-74
2021/10/14 05:47:45;;;;;;;950.15;845.20;;;;;;;;;;5109515;28;20027;-74
2021/10/14 05:50:11;;;;;;;936.53;816.72;;;;;;;;;;5104829;28;20076;-74
2021/10/14 05:52:38;;;;;;;944.13;835.33;;;;;;;;;;5109249;28;20180;-73
2021/10/14 05:55:04;;;;;;;942.38;834.47;;;;;;;;;;5091465;28;20023;-73
2021/10/14 05:57:30;;;;;;;927.22;795.72;;;;;;;;;;5107453;28;20096;-73
2021/10/14 05:59:56;;;;;;;960.50;854.60;;;;;;;;;;5084955;28;20051;-74
2021/10/14 06:02:23;;;;;;;942.30;835.30;;;;;;;;;;5105643;28;20092;-74
2021/10/14 06:04:50;;;;;;;958.78;853.05;;;;;;;;;;5104728;28;20354;-74
2021/10/14 06:07:16;;;;;;;993.78;886.75;;;;;;;;;;5083364;28;20395;-73
2021/10/14 06:09:42;;;;;;;990.20;883.22;;;;;;;;;;5076467;28;20032;-73
2021/10/14 06:12:08;;;;;;;998.75;890.53;;;;;;;;;;5091528;28;20024;-73
2021/10/14 06:14:34;;;;;;;994.45;887.42;;;;;;;;;;5083728;28;20043;-74
2021/10/14 06:17:00;;;;;;;980.13;873.55;;;;;;;;;;5089488;28;20049;-73
2021/10/14 06:19:26;;;;;;;954.13;848.83;;;;;;;;;;5095975;28;20020;-74
2021/10/14 06:21:52;;;;;;;982.95;876.40;;;;;;;;;;5097604;28;20059;-74
2021/10/14 06:24:18;;;;;;;1005.25;897.42;;;;;;;;;;5101309;28;20040;-73
2021/10/14 06:26:43;;;;;;;948.13;842.78;;;;;;;;;;5077059;28;20024;-74
2021/10/14 06:29:11;;;;;;;947.63;842.65;;;;;;;;;;5100324;28;20033;-74
2021/10/14 06:31:36;;;;;;;944.00;817.45;;;;;;;;;;5106847;28;20031;-73
2021/10/14 06:34:02;;;;;;;992.58;885.55;;;;;;;;;;5091069;28;20038;-73
2021/10/14 06:36:28;;;;;;;986.50;879.63;;;;;;;;;;5109135;28;20055;-73
2021/10/14 06:38:54;;;;;;;941.40;797.72;;;;;;;;;;5088755;28;20031;-74
2021/10/14 06:41:21;;;;;;;971.97;865.88;;;;;;;;;;5104225;28;20023;-75
2021/10/14 06:43:47;;;;;;;936.83;819.20;;;;;;;;;;5105326;28;20114;-74
2021/10/14 06:46:13;;;;;;;977.72;871.65;;;;;;;;;;5080150;28;20043;-74
2021/10/14 06:48:39;;;;;;;965.75;860.35;;;;;;;;;;5106280;28;20031;-74
2021/10/14 06:51:05;;;;;;;958.97;853.85;;;;;;;;;;5104525;28;20110;-73
2021/10/14 06:53:31;;;;;;;969.03;863.22;;;;;;;;;;5104771;28;20028;-74
2021/10/14 06:55:58;;;;;;;956.35;840.15;;;;;;;;;;5106834;28;20323;-73
2021/10/14 06:58:24;;;;;;;934.28;818.60;;;;;;;;;;5100390;28;20378;-74
2021/10/14 07:00:50;;;;;;;974.33;860.47;;;;;;;;;;5107511;28;20106;-74
2021/10/14 07:03:16;;;;;;;935.28;824.55;;;;;;;;;;5087632;28;20032;-77
2021/10/14 07:05:41;;;;;;;1000.33;893.13;;;;;;;;;;5105600;28;20032;-73
2021/10/14 07:08:07;;;;;;;948.53;842.42;;;;;;;;;;5107175;28;20504;-73
2021/10/14 07:10:46;;;;;;;959.35;854.05;;;;;;;;;;5104818;28;20034;-74
2021/10/14 07:13:13;;;;;;;987.03;880.00;;;;;;;;;;5078690;28;20138;-74
2021/10/14 07:15:40;;;;;;;954.00;847.90;;;;;;;;;;5107104;28;20032;-74
2021/10/14 07:18:07;;;;;;;996.38;889.20;;;;;;;;;;5098595;28;20050;-74
2021/10/14 07:21:17;;;;;;;944.55;839.70;;;;;;;;;;5095301;28;20032;-74
2021/10/14 07:23:49;;;;;;;929.03;804.78;;;;;;;;;;4993595;28;20106;-74
2021/10/14 07:26:15;;;;;;;944.22;834.42;;;;;;;;;;5020369;28;20062;-74
2021/10/14 07:28:41;;;;;;;958.63;853.65;;;;;;;;;;5096205;28;20024;-74
2021/10/14 07:31:07;;;;;;;973.85;867.83;;;;;;;;;;5078705;28;20039;-74
2021/10/14 07:33:33;;;;;;;968.83;863.30;;;;;;;;;;5098157;28;20281;-74
2021/10/14 07:35:59;;;;;;;938.28;829.00;;;;;;;;;;5102550;28;20028;-73
2021/10/14 07:38:26;;;;;;;963.70;858.17;;;;;;;;;;5110510;28;20023;-74
2021/10/14 07:40:52;;;;;;;987.72;880.97;;;;;;;;;;5111096;28;20035;-74
2021/10/14 07:43:18;;;;;;;999.53;892.40;;;;;;;;;;5096982;28;20112;-74
2021/10/14 07:45:45;;;;;;;974.47;868.72;;;;;;;;;;5100331;28;20399;-74
2021/10/14 07:48:18;;;;;;;975.95;870.10;;;;;;;;;;5104043;28;20104;-74
2021/10/14 07:50:44;;;;;;;937.15;828.83;;;;;;;;;;5080279;28;20036;-73
2021/10/14 07:53:14;;;;;;;985.63;879.20;;;;;;;;;;5100534;28;20526;-75
2021/10/14 07:55:40;;;;;;;984.70;878.55;;;;;;;;;;5098732;28;20255;-75
2021/10/14 07:58:07;;;;;;;1000.70;893.63;;;;;;;;;;5096166;28;20581;-74
2021/10/14 08:00:33;;;;;;;1001.25;894.40;;;;;;;;;;5100537;28;20344;-74
2021/10/14 08:02:59;;;;;;;1001.00;894.13;;;;;;;;;;5095428;28;20024;-74
2021/10/14 08:05:29;;;;;;;1008.65;901.28;;;;;;;;;;5104840;28;20023;-74
2021/10/14 08:07:57;;;;;;;998.78;891.67;;;;;;;;;;5095635;28;20111;-74
2021/10/14 08:10:23;;;;;;;994.80;888.20;;;;;;;;;;5083016;28;20544;-74
2021/10/14 08:12:49;;;;;;;934.85;829.35;;;;;;;;;;5101851;28;20051;-74
2021/10/14 08:15:15;;;;;;;980.70;874.60;;;;;;;;;;5080142;28;20114;-74
2021/10/14 08:17:42;;;;;;;1007.70;900.33;;;;;;;;;;5103482;28;20631;-74
2021/10/14 08:20:09;;;;;;;980.50;874.95;;;;;;;;;;5087952;28;20038;-74
2021/10/14 08:22:37;;;;;;;992.20;885.58;;;;;;;;;;5083540;28;20557;-74
2021/10/14 08:25:06;;;;;;;1002.85;895.90;;;;;;;;;;5106708;28;20031;-74
2021/10/14 08:27:32;;;;;;;1011.17;903.78;;;;;;;;;;5084764;28;20046;-74
2021/10/14 08:29:58;;;;;;;997.10;890.45;;;;;;;;;;5100406;28;20060;-74
2021/10/14 08:32:24;;;;;;;1004.17;897.42;;;;;;;;;;5099974;28;20028;-74
2021/10/14 08:34:50;;;;;;;1035.88;927.03;;;;;;;;;;5101203;28;20039;-74
2021/10/14 08:37:22;;;;;;;1021.28;913.25;;;;;;;;;;5097784;28;20028;-74
2021/10/14 08:39:51;;;;;;;1034.15;925.25;;;;;;;;;;5102360;28;20817;-74
2021/10/14 08:42:17;;;;;;;1015.13;907.72;;;;;;;;;;5104711;28;20034;-73
2021/10/14 08:44:44;;;;;;;1043.68;933.30;;;;;;;;;;5085962;28;20028;-74
2021/10/14 08:47:13;;;;;;;1038.38;929.33;;;;;;;;;;5098090;28;20025;-74
2021/10/14 08:49:46;;;;;;;1009.58;902.55;;;;;;;;;;5103822;28;20030;-74
2021/10/14 08:52:13;;;;;;;1026.43;918.40;;;;;;;;;;5080762;28;20040;-74
2021/10/14 08:54:40;;;;;;;1009.45;902.42;;;;;;;;;;5104995;28;20027;-75
2021/10/14 08:57:06;;;;;;;1007.80;900.83;;;;;;;;;;5103027;28;20024;-75
2021/10/14 08:59:32;;;;;;;1034.13;925.55;;;;;;;;;;5104413;28;20028;-74
2021/10/14 09:02:08;;;;;;;1047.47;938.38;;;;;;;;;;5083912;28;20036;-74
2021/10/14 09:04:38;;;;;;;1041.13;932.28;;;;;;;;;;5100976;28;20031;-74
2021/10/14 09:07:08;;;;;;;1011.40;904.60;;;;;;;;;;5103341;28;20065;-74
2021/10/14 09:09:38;;;;;;;1031.05;923.15;;;;;;;;;;5099622;28;20028;-74
2021/10/14 09:12:07;;;;;;;1032.32;924.53;;;;;;;;;;5097218;28;20050;-74
2021/10/14 09:14:33;;;;;;;999.92;893.65;;;;;;;;;;5101545;28;20707;-75
2021/10/14 09:16:59;;;;;;;1050.78;941.90;;;;;;;;;;5100990;28;20156;-74
2021/10/14 09:19:26;;;;;;;1050.53;941.97;;;;;;;;;;5101992;28;20030;-75
2021/10/14 09:22:00;;;;;;;1051.88;943.22;;;;;;;;;;5102647;28;20390;-75
2021/10/14 09:24:36;;;;;;;1044.82;936.38;;;;;;;;;;5103729;28;20016;-74
2021/10/14 09:27:10;;;;;;;1041.40;932.70;;;;;;;;;;5102932;27;20019;-75
2021/10/14 09:29:38;;;;;;;1044.05;935.58;;;;;;;;;;5100535;28;20646;-75
2021/10/14 09:32:03;;;;;;;1048.07;939.38;;;;;;;;;;5100249;28;20027;-75
2021/10/14 09:34:33;;;;;;;1060.65;951.38;;;;;;;;;;5098668;28;20227;-75
2021/10/14 09:37:00;;;;;;;1056.13;947.50;;;;;;;;;;5095537;28;20530;-75
2021/10/14 09:39:27;;;;;;;1023.72;916.85;;;;;;;;;;5102936;28;20024;-75
2021/10/14 09:41:54;;;;;;;1069.15;959.53;;;;;;;;;;5098353;28;20023;-75
2021/10/14 09:44:21;;;;;;;1063.32;954.75;;;;;;;;;;5084418;28;20114;-75
2021/10/14 09:46:48;;;;;;;1055.65;947.42;;;;;;;;;;5081090;28;20035;-75
2021/10/14 09:49:16;;;;;;;1025.88;919.25;;;;;;;;;;5097075;28;20547;-75
2021/10/14 09:51:43;;;;;;;1055.65;947.50;;;;;;;;;;5100519;28;20058;-74
2021/10/14 09:54:09;;;;;;;1022.70;916.55;;;;;;;;;;5094478;28;20546;-75
2021/10/14 09:56:35;;;;;;;1056.55;948.20;;;;;;;;;;5097634;28;20409;-75
2021/10/14 09:59:02;;;;;;;1059.03;950.10;;;;;;;;;;5099947;28;20045;-75
2021/10/14 10:01:29;;;;;;;1044.47;937.63;;;;;;;;;;5097283;28;20492;-75
2021/10/14 10:03:55;;;;;;;1061.88;953.25;;;;;;;;;;5099571;28;20035;-75
2021/10/14 10:06:29;;;;;;;1073.30;964.42;;;;;;;;;;5080196;28;20028;-76
2021/10/14 10:08:56;;;;;;;1018.00;912.92;;;;;;;;;;5097583;28;20058;-75
2021/10/14 10:11:23;;;;;;;1046.38;939.90;;;;;;;;;;5098734;28;20019;-75
2021/10/14 10:13:53;;;;;;;1070.45;962.35;;;;;;;;;;5077273;28;20096;-75
2021/10/14 10:16:22;;;;;;;1023.13;918.60;;;;;;;;;;5094637;28;20476;-75
2021/10/14 10:18:48;;;;;;;993.50;890.30;;;;;;;;;;5086356;28;20031;-76
2021/10/14 10:21:30;;;;;;;1047.05;940.55;;;;;;;;;;5081662;28;20028;-75
2021/10/14 10:24:03;;;;;;;1065.47;957.63;;;;;;;;;;5081298;28;20463;-76
2021/10/14 10:26:35;;;;;;;1002.40;898.45;;;;;;;;;;5098266;28;20028;-75
2021/10/14 10:29:02;;;;;;;1084.80;976.38;;;;;;;;;;5099159;28;20036;-75
2021/10/14 10:31:47;;;;;;;1059.22;952.42;;;;;;;;;;5096632;28;20118;-76
2021/10/14 10:34:35;;;;;;;1080.25;971.95;;;;;;;;;;5100951;28;20024;-76
2021/10/14 10:37:39;;;;;;;1087.53;977.95;;;;;;;;;;5090072;28;20390;-75
2021/10/14 10:40:21;;;;;;;1066.30;958.17;;;;;;;;;;5088390;28;20487;-75
2021/10/14 10:42:53;;;;;;;1052.53;945.20;;;;;;;;;;5075385;28;20038;-74
2021/10/14 10:45:22;;;;;;;1050.38;943.30;;;;;;;;;;5102685;28;20024;-74
2021/10/14 10:47:57;;;;;;;1068.00;959.58;;;;;;;;;;5096061;28;20086;-74
2021/10/14 10:50:29;;;;;;;1077.35;968.92;;;;;;;;;;5100716;28;20406;-72
2021/10/14 10:53:03;;;;;;;1102.85;992.45;;;;;;;;;;5097050;28;20363;-74
2021/10/14 10:55:28;;;;;;;1103.35;992.53;;;;;;;;;;5100763;28;20024;-75
2021/10/14 10:57:55;;;;;;;1097.28;987.30;;;;;;;;;;5100559;28;20493;-75
2021/10/14 11:00:22;;;;;;;1109.43;996.47;;;;;;;;;;5081001;28;20031;-75
2021/10/14 11:03:07;;;;;;;1103.63;993.17;;;;;;;;;;5078717;28;20024;-75
2021/10/14 11:05:43;;;;;;;1032.35;927.22;;;;;;;;;;5095868;28;20464;-76
2021/10/14 11:08:10;;;;;;;1049.28;943.00;;;;;;;;;;5099821;27;20027;-75
2021/10/14 11:10:36;;;;;;;1053.70;947.15;;;;;;;;;;5106498;28;20398;-75
2021/10/14 11:13:03;;;;;;;1086.95;977.83;;;;;;;;;;5108113;28;20035;-75
2021/10/14 11:15:29;;;;;;;1075.22;967.17;;;;;;;;;;5088651;28;20015;-75
2021/10/14 11:18:05;;;;;;;1074.07;966.00;;;;;;;;;;5086033;28;20016;-74
2021/10/14 11:20:32;;;;;;;1081.65;972.80;;;;;;;;;;5102404;28;20047;-75
2021/10/14 11:23:05;;;;;;;1095.78;985.97;;;;;;;;;;5104008;28;20028;-75
2021/10/14 11:25:31;;;;;;;1087.63;978.45;;;;;;;;;;5106042;28;20367;-76
2021/10/14 11:28:00;;;;;;;1086.32;978.13;;;;;;;;;;5106474;28;20036;-75
2021/10/14 11:30:34;;;;;;;1099.15;989.42;;;;;;;;;;5101368;28;20136;-76
2021/10/14 11:33:09;;;;;;;1074.38;967.08;;;;;;;;;;5105342;28;20031;-76
2021/10/14 11:35:35;;;;;;;1094.40;985.50;;;;;;;;;;5087938;28;20491;-75
2021/10/14 11:38:11;;;;;;;1119.97;999.85;;;;;;;;;;5098534;28;20336;-75
2021/10/14 11:40:39;;;;;;;1113.60;998.08;;;;;;;;;;5074004;28;20119;-76
2021/10/14 11:43:05;;;;;;;1123.22;999.90;;;;;;;;;;5095913;28;20498;-75
2021/10/14 11:45:31;;;;;;;1120.35;999.90;;;;;;;;;;5083459;28;20051;-75
2021/10/14 11:47:57;;;;;;;1105.97;995.25;;;;;;;;;;5089462;28;20062;-75
2021/10/14 11:50:24;;;;;;;1127.68;999.90;;;;;;;;;;5090348;28;20027;-75
2021/10/14 11:53:03;;;;;;;1134.88;999.90;;;;;;;;;;5088345;28;20031;-75
2021/10/14 11:55:30;;;;;;;1112.38;998.05;;;;;;;;;;5106595;28;20023;-75
2021/10/14 11:57:57;;;;;;;1141.13;999.90;;;;;;;;;;5074819;28;20024;-75
2021/10/14 12:00:23;;;;;;;1130.90;999.90;;;;;;;;;;5101426;28;20019;-75
2021/10/14 12:02:49;;;;;;;1131.53;999.90;;;;;;;;;;5081897;28;20028;-76
2021/10/14 12:05:16;;;;;;;1130.15;999.90;;;;;;;;;;5103674;28;20532;-76
2021/10/14 12:07:43;;;;;;;1139.32;999.90;;;;;;;;;;5083776;28;20028;-76
2021/10/14 12:10:29;;;;;;;1131.68;999.90;;;;;;;;;;5104674;28;20145;-75
2021/10/14 12:13:01;;;;;;;1131.20;999.90;;;;;;;;;;5079590;28;20048;-76
2021/10/14 12:15:27;;;;;;;1144.57;999.90;;;;;;;;;;5078598;28;20100;-76
2021/10/14 12:17:53;;;;;;;1144.75;999.90;;;;;;;;;;5080570;28;20055;-75
2021/10/14 12:20:20;;;;;;;1150.90;999.90;;;;;;;;;;5075003;28;20056;-75
2021/10/14 12:22:47;;;;;;;1137.13;999.90;;;;;;;;;;5083715;28;20024;-76
2021/10/14 12:25:14;;;;;;;1146.47;999.90;;;;;;;;;;5076639;28;20043;-76
2021/10/14 12:27:41;;;;;;;1135.05;999.90;;;;;;;;;;5084396;28;20024;-75
2021/10/14 12:30:18;;;;;;;1147.07;999.90;;;;;;;;;;5085192;28;20774;-76
2021/10/14 12:32:43;;;;;;;1152.85;999.90;;;;;;;;;;5082325;28;20085;-76
2021/10/14 12:35:09;;;;;;;1159.40;999.90;;;;;;;;;;5077657;28;20031;-76
2021/10/14 12:37:35;;;;;;;1154.20;999.90;;;;;;;;;;5082522;28;20122;-76
2021/10/14 12:40:12;;;;;;;1142.00;999.90;;;;;;;;;;5081511;28;20419;-76
2021/10/14 12:42:54;;;;;;;1137.07;999.90;;;;;;;;;;5074130;28;20028;-75
2021/10/14 12:45:41;;;;;;;1133.82;999.90;;;;;;;;;;5079882;28;20047;-76
2021/10/14 12:48:15;;;;;;;1132.63;999.90;;;;;;;;;;5075046;28;20112;-75
2021/10/14 12:50:55;;;;;;;1106.07;994.83;;;;;;;;;;5074978;28;20035;-74
2021/10/14 12:53:21;;;;;;;1117.30;999.50;;;;;;;;;;5074869;28;20531;-74
2021/10/14 12:56:00;;;;;;;1127.35;999.90;;;;;;;;;;5072778;28;20523;-74
2021/10/14 12:58:27;;;;;;;1124.03;999.90;;;;;;;;;;5096471;28;20027;-73
2021/10/14 13:00:58;;;;;;;1130.55;999.90;;;;;;;;;;5081931;28;20085;-74
2021/10/14 13:03:24;;;;;;;1132.45;999.90;;;;;;;;;;5080830;28;20027;-74
2021/10/14 13:05:50;;;;;;;1131.20;999.90;;;;;;;;;;5079680;28;20036;-74
2021/10/14 13:08:16;;;;;;;1125.55;999.90;;;;;;;;;;5080388;28;20024;-74
2021/10/14 13:10:42;;;;;;;1133.18;999.90;;;;;;;;;;5075174;28;20057;-74
2021/10/14 13:13:08;;;;;;;1135.68;999.90;;;;;;;;;;5087043;28;20127;-74
2021/10/14 13:15:34;;;;;;;1144.65;999.90;;;;;;;;;;5101829;28;20088;-74
2021/10/14 13:18:00;;;;;;;1128.18;999.90;;;;;;;;;;5081006;28;20023;-74
2021/10/14 13:20:26;;;;;;;1136.30;999.90;;;;;;;;;;5099557;28;20437;-74
2021/10/14 13:22:53;;;;;;;1136.10;999.90;;;;;;;;;;5094756;28;20024;-74
2021/10/14 13:25:19;;;;;;;1138.25;999.90;;;;;;;;;;5099863;28;20424;-74
2021/10/14 13:27:45;;;;;;;1107.32;995.97;;;;;;;;;;5103950;28;20123;-74
2021/10/14 13:30:12;;;;;;;1130.60;999.90;;;;;;;;;;5103071;28;20367;-74
2021/10/14 13:32:38;;;;;;;1135.97;999.90;;;;;;;;;;5079374;28;20032;-74
2021/10/14 13:35:06;;;;;;;1130.60;999.90;;;;;;;;;;5092744;28;20497;-74
2021/10/14 13:37:32;;;;;;;1141.63;999.90;;;;;;;;;;5104555;28;20022;-74
2021/10/14 13:39:59;;;;;;;1148.80;999.90;;;;;;;;;;5100896;28;20032;-74
2021/10/14 13:42:33;;;;;;;1135.93;999.90;;;;;;;;;;5081972;28;20478;-74
2021/10/14 13:45:03;;;;;;;1134.30;999.90;;;;;;;;;;5096773;28;20020;-77
2021/10/14 13:47:29;;;;;;;1143.82;999.90;;;;;;;;;;5101292;28;20506;-73
2021/10/14 13:49:55;;;;;;;1127.38;999.90;;;;;;;;;;5100994;28;20179;-73